Time;durP1;ratioP1;P1;durP2;ratioP2;P2;SDS_P1;SDS_P2;PMS_P1;PMS_P2;Temp;Humidity;BMP_temperature;BMP_pressure;BME280_temperature;BME280_humidity;BME280_pressure;Samples;Min_cycle;Max_cycle;Signal;HPM_P1;HPM_P2
2021/03/04 00:00:20;;;;;;;5.43;2.08;;;3.50;75.60;;;;;;5072289;28;20032;-75
2021/03/04 00:02:47;;;;;;;5.70;1.77;;;3.50;75.90;;;;;;5074977;28;20359;-75
2021/03/04 00:05:14;;;;;;;2.65;1.17;;;3.50;76.00;;;;;;5074939;28;20051;-75
2021/03/04 00:07:41;;;;;;;4.10;1.48;;;3.50;76.30;;;;;;5074948;28;20055;-76
2021/03/04 00:10:11;;;;;;;4.10;1.20;;;3.50;76.50;;;;;;5074827;28;20035;-76
2021/03/04 00:12:37;;;;;;;3.20;1.77;;;3.50;76.60;;;;;;5075969;28;20020;-75
2021/03/04 00:15:05;;;;;;;2.00;1.10;;;3.50;76.70;;;;;;5067139;28;20102;-75
2021/03/04 00:17:31;;;;;;;4.65;1.35;;;3.50;76.70;;;;;;5074817;28;20024;-74
2021/03/04 00:19:57;;;;;;;6.00;1.73;;;3.50;76.90;;;;;;5074627;28;20078;-75
2021/03/04 00:22:23;;;;;;;2.35;1.35;;;3.50;77.10;;;;;;5074710;28;20031;-74
2021/03/04 00:24:49;;;;;;;3.92;1.20;;;3.60;77.20;;;;;;5056475;28;20040;-75
2021/03/04 00:27:15;;;;;;;4.22;1.63;;;3.50;77.40;;;;;;5056555;28;20029;-75
2021/03/04 00:29:41;;;;;;;2.10;1.25;;;3.60;77.50;;;;;;5074843;28;20079;-76
2021/03/04 00:32:07;;;;;;;4.90;1.33;;;3.60;77.50;;;;;;5074273;28;20019;-75
2021/03/04 00:34:33;;;;;;;5.45;2.28;;;3.60;77.40;;;;;;5074730;28;20111;-75
2021/03/04 00:36:59;;;;;;;3.80;1.30;;;3.70;77.30;;;;;;5074318;28;20027;-74
2021/03/04 00:39:25;;;;;;;2.42;1.33;;;3.70;77.30;;;;;;5056807;28;20029;-75
2021/03/04 00:41:51;;;;;;;2.90;1.05;;;3.70;77.30;;;;;;5079232;28;20024;-75
2021/03/04 00:44:17;;;;;;;2.03;1.23;;;3.70;77.50;;;;;;5074589;28;20029;-74
2021/03/04 00:46:43;;;;;;;3.90;2.28;;;3.70;77.70;;;;;;5074428;28;20021;-74
2021/03/04 00:49:09;;;;;;;3.85;1.20;;;3.70;77.70;;;;;;5074017;28;20078;-76
2021/03/04 00:51:35;;;;;;;4.05;2.00;;;3.70;77.70;;;;;;5073985;28;20047;-74
2021/03/04 00:54:01;;;;;;;3.13;1.63;;;3.70;77.80;;;;;;5074141;28;20422;-76
2021/03/04 00:56:26;;;;;;;2.20;1.42;;;3.70;77.80;;;;;;5056429;28;20041;-74
2021/03/04 00:58:52;;;;;;;3.03;1.30;;;3.80;77.90;;;;;;5073978;28;20033;-74
2021/03/04 01:01:19;;;;;;;3.60;2.35;;;3.80;77.90;;;;;;5073882;28;20020;-76
2021/03/04 01:03:45;;;;;;;5.10;1.83;;;3.80;78.10;;;;;;5073997;28;20103;-76
2021/03/04 01:06:13;;;;;;;4.18;2.08;;;3.70;77.90;;;;;;5073947;28;20048;-76
2021/03/04 01:08:39;;;;;;;5.05;1.45;;;3.80;78.00;;;;;;5074133;28;20021;-73
2021/03/04 01:11:07;;;;;;;2.85;1.85;;;3.80;78.00;;;;;;5055710;28;20516;-75
2021/03/04 01:13:32;;;;;;;1.88;0.90;;;3.80;78.10;;;;;;5073176;28;20021;-75
2021/03/04 01:15:58;;;;;;;2.25;0.98;;;3.70;78.20;;;;;;5073719;28;20020;-74
2021/03/04 01:18:24;;;;;;;2.08;1.33;;;3.70;78.30;;;;;;5073720;28;20397;-75
2021/03/04 01:20:50;;;;;;;2.33;1.58;;;3.80;78.20;;;;;;5073621;28;20362;-75
2021/03/04 01:23:16;;;;;;;3.38;1.38;;;3.80;78.30;;;;;;5072305;28;20027;-76
2021/03/04 01:25:42;;;;;;;5.00;1.77;;;3.70;78.30;;;;;;5073849;28;20075;-74
2021/03/04 01:28:08;;;;;;;4.22;1.58;;;3.70;78.50;;;;;;5073471;28;20071;-74
2021/03/04 01:30:34;;;;;;;2.83;1.13;;;3.70;78.60;;;;;;5073466;28;20481;-74
2021/03/04 01:33:00;;;;;;;1.83;1.00;;;3.70;78.50;;;;;;5055430;28;20024;-75
2021/03/04 01:35:26;;;;;;;2.55;1.45;;;3.70;78.60;;;;;;5065280;28;20032;-74
2021/03/04 01:37:54;;;;;;;6.47;1.80;;;3.80;78.70;;;;;;5073528;28;20207;-74
2021/03/04 01:40:22;;;;;;;4.82;1.27;;;3.70;78.60;;;;;;5055501;28;20469;-74
2021/03/04 01:42:52;;;;;;;3.60;1.38;;;3.80;78.70;;;;;;5048161;28;20020;-73
2021/03/04 01:45:18;;;;;;;3.03;1.10;;;3.70;78.80;;;;;;5055330;28;20024;-74
2021/03/04 01:47:49;;;;;;;2.63;1.17;;;3.60;79.30;;;;;;5073460;28;20023;-74
2021/03/04 01:50:17;;;;;;;3.55;1.27;;;3.60;80.00;;;;;;5055045;28;20370;-73
2021/03/04 01:52:44;;;;;;;1.90;1.20;;;3.60;80.60;;;;;;5055188;28;20024;-75
2021/03/04 01:55:11;;;;;;;7.90;1.70;;;3.50;81.20;;;;;;5072848;28;20020;-75
2021/03/04 01:57:38;;;;;;;4.32;1.40;;;3.40;81.90;;;;;;5054258;28;20041;-76
2021/03/04 02:00:06;;;;;;;3.10;1.52;;;3.30;82.40;;;;;;5039526;28;20041;-75
2021/03/04 02:02:32;;;;;;;2.50;1.60;;;3.30;83.00;;;;;;5031401;28;20075;-75
2021/03/04 02:04:58;;;;;;;3.92;1.27;;;3.20;83.80;;;;;;5033946;28;20017;-76
2021/03/04 02:07:39;;;;;;;3.67;1.58;;;3.10;84.40;;;;;;5052719;28;20029;-77
2021/03/04 02:10:29;;;;;;;4.03;1.48;;;3.10;85.20;;;;;;5041536;28;20021;-75
2021/03/04 02:13:17;;;;;;;2.92;1.13;;;3.00;86.00;;;;;;5037320;28;20025;-76
2021/03/04 02:16:01;;;;;;;;;;;2.90;86.40;;;;;;5036354;28;20347;-76
2021/03/04 02:18:34;;;;;;;7.25;1.60;;;2.90;85.80;;;;;;5023737;28;19956;-76
2021/03/04 02:21:20;;;;;;;4.32;1.52;;;2.80;86.70;;;;;;5047853;28;20386;-75
2021/03/04 02:24:19;;;;;;;4.80;1.45;;;2.80;87.40;;;;;;5018776;28;20067;-75
2021/03/04 02:27:03;;;;;;;5.03;1.58;;;2.60;88.70;;;;;;5046552;28;20021;-74
2021/03/04 02:29:55;;;;;;;2.63;1.50;;;2.60;89.70;;;;;;5048748;28;20025;-75
2021/03/04 02:32:25;;;;;;;2.13;1.50;;;2.50;90.20;;;;;;5039623;28;20064;-75
2021/03/04 02:34:56;;;;;;;2.83;1.75;;;2.50;90.60;;;;;;5043807;28;20072;-75
2021/03/04 02:37:24;;;;;;;2.55;1.38;;;2.40;90.70;;;;;;5047555;28;20017;-75
2021/03/04 02:39:53;;;;;;;1.92;1.48;;;2.40;90.80;;;;;;5038895;28;20032;-75
2021/03/04 02:42:22;;;;;;;4.60;1.90;;;2.40;91.00;;;;;;5046021;28;20046;-74
2021/03/04 02:44:55;;;;;;;3.63;1.77;;;2.40;91.00;;;;;;5047249;28;20096;-74
2021/03/04 02:47:22;;;;;;;3.30;1.50;;;2.40;91.20;;;;;;5045719;28;20028;-74
2021/03/04 02:49:48;;;;;;;2.97;1.30;;;2.50;91.20;;;;;;5042920;28;20021;-74
2021/03/04 02:52:17;;;;;;;2.78;1.58;;;2.50;91.30;;;;;;5023916;28;20041;-74
2021/03/04 02:54:43;;;;;;;2.45;1.52;;;2.40;91.40;;;;;;5043376;28;20016;-76
2021/03/04 02:57:11;;;;;;;1.73;1.33;;;2.40;91.50;;;;;;5051702;28;20044;-75
2021/03/04 02:59:43;;;;;;;3.13;1.92;;;2.50;91.50;;;;;;5051773;28;20486;-75
2021/03/04 03:02:11;;;;;;;2.30;1.15;;;2.50;91.90;;;;;;5051534;28;20378;-76
2021/03/04 03:04:39;;;;;;;3.15;1.27;;;2.40;91.70;;;;;;5051750;28;20025;-75
2021/03/04 03:07:08;;;;;;;3.17;1.67;;;2.40;91.90;;;;;;5051933;28;20441;-74
2021/03/04 03:09:34;;;;;;;4.07;1.48;;;2.40;91.90;;;;;;5051925;28;20025;-75
2021/03/04 03:12:01;;;;;;;2.83;1.20;;;2.40;92.00;;;;;;5050908;28;20063;-75
2021/03/04 03:14:30;;;;;;;3.28;1.63;;;2.40;92.10;;;;;;5045090;28;20032;-75
2021/03/04 03:16:58;;;;;;;3.83;1.55;;;2.30;92.20;;;;;;5049420;28;20505;-75
2021/03/04 03:19:24;;;;;;;2.13;1.30;;;2.30;92.40;;;;;;5046330;28;20076;-76
2021/03/04 03:21:50;;;;;;;1.60;1.30;;;2.30;92.60;;;;;;5049576;28;20017;-75
2021/03/04 03:24:16;;;;;;;5.15;1.60;;;2.30;92.60;;;;;;5047565;28;20465;-75
2021/03/04 03:26:42;;;;;;;2.88;1.50;;;2.30;92.80;;;;;;5028687;28;20052;-76
2021/03/04 03:29:09;;;;;;;2.75;1.35;;;2.30;92.80;;;;;;5049023;28;20509;-74
2021/03/04 03:31:36;;;;;;;2.97;1.10;;;2.30;92.90;;;;;;5009765;28;20689;-76
2021/03/04 03:34:05;;;;;;;3.05;1.77;;;2.30;93.20;;;;;;5049164;28;20107;-75
2021/03/04 03:36:33;;;;;;;4.47;1.65;;;2.30;93.10;;;;;;5022382;28;20487;-75
2021/03/04 03:39:00;;;;;;;2.00;1.30;;;2.30;93.00;;;;;;5052969;28;20029;-74
2021/03/04 03:41:26;;;;;;;3.95;1.58;;;2.30;93.10;;;;;;5032427;28;20055;-76
2021/03/04 03:43:53;;;;;;;5.53;1.67;;;2.30;93.20;;;;;;5053168;28;20021;-75
2021/03/04 03:46:20;;;;;;;3.42;1.88;;;2.30;93.20;;;;;;5046207;28;20017;-75
2021/03/04 03:48:47;;;;;;;4.95;1.83;;;2.30;93.20;;;;;;5051103;28;20035;-75
2021/03/04 03:51:14;;;;;;;3.42;1.20;;;2.30;93.20;;;;;;5045485;28;20029;-75
2021/03/04 03:53:41;;;;;;;2.58;1.60;;;2.30;93.20;;;;;;5049418;28;20101;-75
2021/03/04 03:56:08;;;;;;;5.60;1.40;;;2.30;93.20;;;;;;5050349;28;20064;-76
2021/03/04 03:58:37;;;;;;;2.05;1.38;;;2.30;93.20;;;;;;5055289;28;20087;-75
2021/03/04 04:01:04;;;;;;;5.53;1.70;;;2.30;93.20;;;;;;5036999;28;20033;-75
2021/03/04 04:03:31;;;;;;;3.78;1.40;;;2.30;93.20;;;;;;5055357;28;20025;-76
2021/03/04 04:05:57;;;;;;;6.72;1.55;;;2.30;93.30;;;;;;5054003;28;20025;-73
2021/03/04 04:08:25;;;;;;;3.28;1.48;;;2.40;93.30;;;;;;5033047;28;20475;-77
2021/03/04 04:10:51;;;;;;;3.58;1.63;;;2.40;93.10;;;;;;5048834;28;20359;-75
2021/03/04 04:13:18;;;;;;;4.72;1.90;;;2.40;93.00;;;;;;5037292;28;20030;-76
2021/03/04 04:15:44;;;;;;;3.53;1.90;;;2.40;93.00;;;;;;5054168;28;20057;-77
2021/03/04 04:18:11;;;;;;;2.97;1.60;;;2.40;92.90;;;;;;5040232;28;20064;-77
2021/03/04 04:20:37;;;;;;;5.28;2.08;;;2.40;92.90;;;;;;5035413;28;20017;-74
2021/03/04 04:23:03;;;;;;;2.58;1.60;;;2.40;92.90;;;;;;5062198;28;20025;-76
2021/03/04 04:25:31;;;;;;;3.88;2.05;;;2.40;92.90;;;;;;5048042;28;20028;-76
2021/03/04 04:27:57;;;;;;;4.85;1.83;;;2.50;93.00;;;;;;5023186;28;20021;-77
2021/03/04 04:30:25;;;;;;;3.60;1.40;;;2.50;92.90;;;;;;5050167;28;20542;-76
2021/03/04 04:32:52;;;;;;;5.63;1.63;;;2.50;92.80;;;;;;5051409;28;20096;-76
2021/03/04 04:35:18;;;;;;;3.88;1.60;;;2.50;92.70;;;;;;5032063;28;20398;-75
2021/03/04 04:37:44;;;;;;;4.00;2.00;;;2.50;92.70;;;;;;5036962;28;20021;-74
2021/03/04 04:40:11;;;;;;;4.25;2.08;;;2.50;92.80;;;;;;5028654;28;20497;-75
2021/03/04 04:42:38;;;;;;;2.38;1.45;;;2.50;92.80;;;;;;5051385;28;20020;-76
2021/03/04 04:45:06;;;;;;;3.28;1.67;;;2.50;92.60;;;;;;5027523;28;20617;-76
2021/03/04 04:47:32;;;;;;;4.20;1.60;;;2.50;92.70;;;;;;5035247;28;20044;-75
2021/03/04 04:49:58;;;;;;;2.85;1.67;;;2.50;92.70;;;;;;5036658;28;20013;-75
2021/03/04 04:52:24;;;;;;;3.40;1.85;;;2.50;92.80;;;;;;5031339;28;20024;-78
2021/03/04 04:54:50;;;;;;;2.65;1.80;;;2.50;92.70;;;;;;5051904;28;20474;-76
2021/03/04 04:57:16;;;;;;;3.30;1.58;;;2.40;92.80;;;;;;5064348;28;20064;-75
2021/03/04 04:59:42;;;;;;;3.22;1.90;;;2.40;92.90;;;;;;5074242;28;20028;-76
2021/03/04 05:02:08;;;;;;;6.22;2.13;;;2.40;93.10;;;;;;5072941;28;20029;-78
2021/03/04 05:04:33;;;;;;;3.25;1.75;;;2.50;93.10;;;;;;5053006;28;20501;-77
2021/03/04 05:06:59;;;;;;;2.05;1.73;;;2.50;93.00;;;;;;5073960;28;20048;-75
2021/03/04 05:09:26;;;;;;;2.45;2.15;;;2.40;93.00;;;;;;5055704;28;20021;-75
2021/03/04 05:11:52;;;;;;;5.03;2.25;;;2.50;93.50;;;;;;5055942;28;20089;-76
2021/03/04 05:14:20;;;;;;;2.70;1.90;;;2.50;93.10;;;;;;5073801;28;20099;-77
2021/03/04 05:16:46;;;;;;;10.00;2.67;;;2.50;93.10;;;;;;5065561;28;20024;-76
2021/03/04 05:19:13;;;;;;;4.38;2.17;;;2.40;93.00;;;;;;5073933;28;20028;-75
2021/03/04 05:21:39;;;;;;;5.80;2.40;;;2.50;93.00;;;;;;5067380;28;20020;-79
2021/03/04 05:24:05;;;;;;;4.50;1.95;;;2.50;93.00;;;;;;5073809;28;20020;-77
2021/03/04 05:26:31;;;;;;;6.35;1.98;;;2.50;93.00;;;;;;5073163;28;20021;-77
2021/03/04 05:28:57;;;;;;;5.45;1.63;;;2.40;92.90;;;;;;5073066;28;20032;-77
2021/03/04 05:31:23;;;;;;;8.85;2.13;;;2.50;92.90;;;;;;5073467;28;20267;-77
2021/03/04 05:33:49;;;;;;;4.57;2.00;;;2.40;92.90;;;;;;5073104;28;20020;-77
2021/03/04 05:36:14;;;;;;;3.70;2.08;;;2.40;92.90;;;;;;5073132;28;20020;-76
2021/03/04 05:38:40;;;;;;;3.78;1.77;;;2.40;93.00;;;;;;5071576;28;20032;-76
2021/03/04 05:41:08;;;;;;;4.90;2.33;;;2.40;93.20;;;;;;5073510;28;20025;-76
2021/03/04 05:43:36;;;;;;;4.72;2.63;;;2.30;93.30;;;;;;5073291;28;20393;-76
2021/03/04 05:46:05;;;;;;;4.50;2.05;;;2.40;93.50;;;;;;5055261;28;20078;-76
2021/03/04 05:48:33;;;;;;;4.40;2.05;;;2.50;93.50;;;;;;5073101;28;20016;-77
2021/03/04 05:51:02;;;;;;;4.93;2.10;;;2.50;93.30;;;;;;5055020;28;20366;-78
2021/03/04 05:53:29;;;;;;;7.28;2.90;;;2.50;93.30;;;;;;5072911;28;20020;-77
2021/03/04 05:55:55;;;;;;;4.60;2.10;;;2.50;93.10;;;;;;5040242;28;20063;-76
2021/03/04 05:58:23;;;;;;;2.85;1.80;;;2.40;93.10;;;;;;5051862;28;20040;-77
2021/03/04 06:00:49;;;;;;;5.43;2.63;;;2.40;93.50;;;;;;5053045;28;20025;-76
2021/03/04 06:03:15;;;;;;;5.70;2.55;;;2.50;93.40;;;;;;5053151;28;20032;-77
2021/03/04 06:05:41;;;;;;;5.93;2.60;;;2.50;93.40;;;;;;5052543;28;20048;-75
2021/03/04 06:08:07;;;;;;;5.45;2.05;;;2.50;93.30;;;;;;5053022;28;20470;-76
2021/03/04 06:10:34;;;;;;;7.85;2.90;;;2.50;93.20;;;;;;5053357;28;20442;-77
2021/03/04 06:13:00;;;;;;;5.88;2.53;;;2.50;93.10;;;;;;5053794;28;20025;-77
2021/03/04 06:15:27;;;;;;;4.05;2.53;;;2.50;93.20;;;;;;5057045;28;20104;-78
2021/03/04 06:18:00;;;;;;;5.63;2.27;;;2.50;93.10;;;;;;5050395;28;20429;-77
2021/03/04 06:20:44;;;;;;;4.78;2.55;;;2.40;93.20;;;;;;5052913;28;20262;-77
2021/03/04 06:23:10;;;;;;;4.82;2.45;;;2.40;93.20;;;;;;5052676;28;20082;-76
2021/03/04 06:25:37;;;;;;;5.75;2.88;;;2.40;93.30;;;;;;5052801;28;20017;-75
2021/03/04 06:28:05;;;;;;;7.17;2.97;;;2.40;93.30;;;;;;5052535;28;20025;-75
2021/03/04 06:30:37;;;;;;;4.93;2.58;;;2.50;93.30;;;;;;5052804;28;20489;-75
2021/03/04 06:33:11;;;;;;;7.88;2.90;;;2.40;93.20;;;;;;5052394;28;20442;-75
2021/03/04 06:35:39;;;;;;;7.78;3.08;;;2.50;93.20;;;;;;5052396;28;20025;-76
2021/03/04 06:38:22;;;;;;;5.25;2.45;;;2.50;93.20;;;;;;5022777;28;20479;-75
2021/03/04 06:40:52;;;;;;;6.45;2.95;;;2.50;93.20;;;;;;5042885;28;20020;-76
2021/03/04 06:43:23;;;;;;;3.83;2.90;;;2.60;93.20;;;;;;5052170;28;20032;-76
2021/03/04 06:46:05;;;;;;;6.65;2.88;;;2.60;93.20;;;;;;5052522;28;20017;-75
2021/03/04 06:48:31;;;;;;;3.63;2.58;;;2.60;93.10;;;;;;5050462;28;20014;-77
2021/03/04 06:51:03;;;;;;;3.78;2.20;;;2.60;93.10;;;;;;5050993;28;20031;-76
2021/03/04 06:53:30;;;;;;;7.57;2.90;;;2.60;93.20;;;;;;5051900;28;20028;-75
2021/03/04 06:56:05;;;;;;;5.38;2.10;;;2.60;93.20;;;;;;5048204;28;20049;-75
2021/03/04 06:58:38;;;;;;;7.20;2.88;;;2.60;93.30;;;;;;5052077;28;20120;-76
2021/03/04 07:01:15;;;;;;;4.60;3.03;;;2.60;93.20;;;;;;5055440;28;20025;-76
2021/03/04 07:03:44;;;;;;;3.00;2.33;;;2.60;93.30;;;;;;5051024;28;20025;-75
2021/03/04 07:06:12;;;;;;;6.47;4.53;;;2.70;93.20;;;;;;5051342;28;20029;-76
2021/03/04 07:08:41;;;;;;;4.85;2.63;;;2.70;93.30;;;;;;5051927;28;20026;-75
2021/03/04 07:11:18;;;;;;;4.57;2.65;;;2.70;93.20;;;;;;5053450;28;20453;-76
2021/03/04 07:13:44;;;;;;;;;;;2.80;93.10;;;;;;5056610;28;20032;-76
2021/03/04 07:16:19;;;;;;;4.45;2.67;;;2.80;92.90;;;;;;5056070;28;19905;-75
2021/03/04 07:18:51;;;;;;;2.83;1.95;;;2.70;92.90;;;;;;5056253;28;20029;-74
2021/03/04 07:21:18;;;;;;;6.53;3.03;;;2.70;93.00;;;;;;5056020;28;20049;-76
2021/03/04 07:23:46;;;;;;;5.05;2.22;;;2.70;92.90;;;;;;5056163;28;20450;-76
2021/03/04 07:26:14;;;;;;;2.40;1.80;;;2.70;93.00;;;;;;5056212;28;20467;-76
2021/03/04 07:28:43;;;;;;;8.25;2.40;;;2.70;93.00;;;;;;5042422;28;20024;-75
2021/03/04 07:31:10;;;;;;;5.88;2.38;;;2.70;93.00;;;;;;5056144;28;20107;-76
2021/03/04 07:33:46;;;;;;;3.08;1.75;;;2.80;93.10;;;;;;5054623;28;20105;-76
2021/03/04 07:36:14;;;;;;;4.80;2.50;;;2.80;92.90;;;;;;5055752;28;20112;-75
2021/03/04 07:38:40;;;;;;;;;;;2.80;92.90;;;;;;5040287;28;20124;-76
2021/03/04 07:41:12;;;;;;;5.00;2.60;;;2.90;92.90;;;;;;5054896;28;19940;-74
2021/03/04 07:43:54;;;;;;;8.98;3.03;;;2.80;92.90;;;;;;5055712;28;20482;-77
2021/03/04 07:46:39;;;;;;;4.20;2.33;;;2.80;93.00;;;;;;5055485;28;20028;-75
2021/03/04 07:49:07;;;;;;;4.30;2.33;;;2.90;93.00;;;;;;5037371;28;20025;-76
2021/03/04 07:51:48;;;;;;;5.05;2.55;;;3.00;92.90;;;;;;5055627;28;20040;-76
2021/03/04 07:54:29;;;;;;;3.53;2.17;;;3.00;92.90;;;;;;5042895;28;20064;-75
2021/03/04 07:57:11;;;;;;;7.72;2.58;;;3.00;92.90;;;;;;5055523;28;20444;-79
2021/03/04 08:00:02;;;;;;;3.38;2.17;;;3.00;92.80;;;;;;5038089;28;20025;-75
2021/03/04 08:02:38;;;;;;;2.58;2.10;;;3.20;92.90;;;;;;5058065;28;20031;-76
2021/03/04 08:05:11;;;;;;;4.25;2.38;;;3.30;92.60;;;;;;5067291;28;20056;-77
2021/03/04 08:07:38;;;;;;;5.47;2.42;;;3.20;92.40;;;;;;5034378;28;20033;-75
2021/03/04 08:10:18;;;;;;;5.87;2.87;;;3.30;92.40;;;;;;5037220;28;20017;-78
2021/03/04 08:12:57;;;;;;;6.00;2.33;;;3.30;92.20;;;;;;5037311;28;20270;-78
2021/03/04 08:15:34;;;;;;;6.53;2.85;;;3.30;92.10;;;;;;5055271;28;20021;-75
2021/03/04 08:18:00;;;;;;;;;;;3.30;92.20;;;;;;5055306;28;20108;-76
2021/03/04 08:20:26;;;;;;;6.35;3.03;;;3.50;92.10;;;;;;5054999;28;19956;-76
2021/03/04 08:22:57;;;;;;;4.78;2.60;;;3.50;91.90;;;;;;5036625;28;20506;-76
2021/03/04 08:25:31;;;;;;;4.82;2.47;;;3.40;91.60;;;;;;5036965;28;20064;-74
2021/03/04 08:28:02;;;;;;;6.35;2.45;;;3.30;91.70;;;;;;5054562;28;20021;-76
2021/03/04 08:30:41;;;;;;;4.93;2.67;;;3.50;91.70;;;;;;5054745;28;20017;-76
2021/03/04 08:33:10;;;;;;;6.85;3.35;;;3.40;91.40;;;;;;5054859;28;20128;-76
2021/03/04 08:35:38;;;;;;;6.80;2.97;;;3.50;91.30;;;;;;5054702;28;20024;-77
2021/03/04 08:38:09;;;;;;;7.70;3.72;;;3.60;91.30;;;;;;5054750;28;20060;-75
2021/03/04 08:40:45;;;;;;;9.45;3.50;;;3.90;91.40;;;;;;5036785;28;20356;-76
2021/03/04 08:43:13;;;;;;;4.18;2.80;;;4.00;90.80;;;;;;5054674;28;20025;-77
2021/03/04 08:45:39;;;;;;;4.07;2.50;;;4.10;90.50;;;;;;5054965;28;20027;-76
2021/03/04 08:48:09;;;;;;;2.80;2.03;;;4.40;90.20;;;;;;5054600;28;20029;-75
2021/03/04 08:50:43;;;;;;;2.83;1.73;;;4.50;89.20;;;;;;5036318;28;20032;-75
2021/03/04 08:53:15;;;;;;;3.55;1.83;;;4.50;88.30;;;;;;5046189;28;20029;-76
2021/03/04 08:55:49;;;;;;;4.45;2.30;;;4.50;87.30;;;;;;5054085;28;20020;-75
2021/03/04 08:58:15;;;;;;;4.22;2.22;;;4.50;87.30;;;;;;5067249;28;20174;-75
2021/03/04 09:00:51;;;;;;;5.60;2.78;;;4.50;87.30;;;;;;5074307;28;20028;-75
2021/03/04 09:03:19;;;;;;;6.32;2.30;;;4.60;87.00;;;;;;5073953;28;20040;-76
2021/03/04 09:05:44;;;;;;;6.53;1.95;;;4.70;86.60;;;;;;5056018;28;20021;-76
2021/03/04 09:08:13;;;;;;;4.55;2.80;;;4.70;85.80;;;;;;5074181;28;20031;-76
2021/03/04 09:10:50;;;;;;;3.10;1.70;;;4.80;85.50;;;;;;5074171;28;20024;-76
2021/03/04 09:13:21;;;;;;;;;;;4.90;84.50;;;;;;5056284;28;20497;-75
2021/03/04 09:15:50;;;;;;;5.10;2.97;;;4.80;85.10;;;;;;5074165;28;19904;-77
2021/03/04 09:18:17;;;;;;;3.42;1.83;;;4.60;84.70;;;;;;5073678;28;20453;-77
2021/03/04 09:20:44;;;;;;;8.18;2.28;;;5.00;84.90;;;;;;5074963;28;20020;-77
2021/03/04 09:23:11;;;;;;;4.60;1.95;;;5.30;83.90;;;;;;5073713;28;20101;-79
2021/03/04 09:25:37;;;;;;;4.68;2.25;;;5.30;82.30;;;;;;5073735;28;20035;-76
2021/03/04 09:28:05;;;;;;;2.17;1.80;;;5.10;81.90;;;;;;5055363;28;20062;-75
2021/03/04 09:30:33;;;;;;;3.63;1.70;;;4.60;82.60;;;;;;5073664;28;20485;-76
2021/03/04 09:33:01;;;;;;;5.55;2.20;;;4.00;84.50;;;;;;5072939;28;20016;-76
2021/03/04 09:35:27;;;;;;;4.90;1.20;;;3.70;86.10;;;;;;5052578;28;20025;-76
2021/03/04 09:38:04;;;;;;;3.03;1.50;;;3.40;86.40;;;;;;5071470;28;20050;-76
2021/03/04 09:40:30;;;;;;;4.95;2.30;;;3.20;87.70;;;;;;5073109;28;20385;-75
2021/03/04 09:42:57;;;;;;;3.00;1.50;;;3.00;88.50;;;;;;5073282;28;20111;-76
2021/03/04 09:45:23;;;;;;;3.30;1.63;;;2.90;88.90;;;;;;5073176;28;20020;-75
2021/03/04 09:47:51;;;;;;;3.25;1.77;;;2.90;89.30;;;;;;5073521;28;20753;-76
2021/03/04 09:50:26;;;;;;;;;;;3.00;88.80;;;;;;5055880;28;20060;-75
2021/03/04 09:53:06;;;;;;;2.20;1.48;;;3.10;88.70;;;;;;5074050;28;19955;-77
2021/03/04 09:55:40;;;;;;;1.98;1.50;;;3.10;88.80;;;;;;5076484;28;20043;-78
2021/03/04 09:58:16;;;;;;;5.55;1.80;;;3.20;88.60;;;;;;5090765;28;20029;-79
2021/03/04 10:00:43;;;;;;;3.92;1.98;;;3.60;88.60;;;;;;5057435;28;20056;-78
2021/03/04 10:03:13;;;;;;;4.13;2.20;;;3.90;86.90;;;;;;5055266;28;20063;-78
2021/03/04 10:05:51;;;;;;;5.13;2.38;;;4.20;86.30;;;;;;5055398;28;20028;-77
2021/03/04 10:08:17;;;;;;;;;;;4.40;85.10;;;;;;5042073;28;20021;-78
2021/03/04 10:10:45;;;;;;;4.97;2.22;;;4.30;84.80;;;;;;5073428;28;19915;-76
2021/03/04 10:13:11;;;;;;;4.53;2.88;;;4.00;83.60;;;;;;5072814;28;20508;-77
2021/03/04 10:15:40;;;;;;;3.80;2.55;;;3.80;84.20;;;;;;5051517;28;20478;-76
2021/03/04 10:18:15;;;;;;;3.53;2.53;;;3.70;84.70;;;;;;5072462;28;20020;-74
2021/03/04 10:20:45;;;;;;;4.55;2.85;;;3.60;85.00;;;;;;5072780;28;20059;-78
2021/03/04 10:23:13;;;;;;;5.18;1.95;;;3.50;85.20;;;;;;5072935;28;20377;-76
2021/03/04 10:25:39;;;;;;;2.28;1.38;;;3.40;84.90;;;;;;5073049;28;20036;-78
2021/03/04 10:28:06;;;;;;;2.78;1.50;;;3.20;84.80;;;;;;5072880;28;20394;-78
2021/03/04 10:30:34;;;;;;;2.08;1.50;;;3.00;85.00;;;;;;5055093;28;20024;-78
2021/03/04 10:33:06;;;;;;;2.03;1.17;;;2.90;85.70;;;;;;5054906;28;20048;-77
2021/03/04 10:35:35;;;;;;;2.13;1.45;;;2.90;86.20;;;;;;5038634;28;20073;-80
2021/03/04 10:38:01;;;;;;;2.13;1.55;;;2.80;85.90;;;;;;5070827;28;20017;-79
2021/03/04 10:40:27;;;;;;;2.20;1.75;;;2.70;86.10;;;;;;5072565;28;20021;-76
2021/03/04 10:42:53;;;;;;;5.72;2.15;;;2.70;86.60;;;;;;5072289;28;20035;-76
2021/03/04 10:45:19;;;;;;;2.63;2.03;;;2.60;86.80;;;;;;5072158;28;20031;-77
2021/03/04 10:48:06;;;;;;;2.63;1.95;;;2.50;87.10;;;;;;5072443;28;20095;-77
2021/03/04 10:50:32;;;;;;;6.05;2.63;;;2.40;87.90;;;;;;5038211;28;20040;-77
2021/03/04 10:52:58;;;;;;;3.10;2.13;;;2.20;88.20;;;;;;5053235;28;20036;-75
2021/03/04 10:55:24;;;;;;;4.55;2.65;;;2.20;88.80;;;;;;5071957;28;20024;-78
2021/03/04 10:57:50;;;;;;;5.88;2.22;;;2.10;89.00;;;;;;5072147;28;20040;-76
2021/03/04 11:00:16;;;;;;;3.72;2.38;;;2.10;89.10;;;;;;5072045;28;20036;-76
2021/03/04 11:02:42;;;;;;;4.75;3.35;;;2.10;89.10;;;;;;5072120;28;20409;-77
2021/03/04 11:05:09;;;;;;;3.42;2.38;;;2.10;89.20;;;;;;5072239;28;20021;-76
2021/03/04 11:07:35;;;;;;;5.32;2.38;;;2.10;89.30;;;;;;5072126;28;20032;-76
2021/03/04 11:10:03;;;;;;;6.72;3.35;;;2.20;89.40;;;;;;5072182;28;20016;-75
2021/03/04 11:12:30;;;;;;;4.07;2.88;;;2.30;89.20;;;;;;5072248;28;20098;-78
2021/03/04 11:14:56;;;;;;;3.78;2.13;;;2.30;88.40;;;;;;5071886;28;20099;-76
2021/03/04 11:17:22;;;;;;;4.50;3.15;;;2.30;88.40;;;;;;5072357;28;20453;-76
2021/03/04 11:19:48;;;;;;;6.85;3.35;;;2.20;88.60;;;;;;5071847;28;20070;-77
2021/03/04 11:22:14;;;;;;;5.35;2.88;;;2.20;89.00;;;;;;5072256;28;20021;-76
2021/03/04 11:24:41;;;;;;;6.00;2.85;;;2.30;88.90;;;;;;5054121;28;20040;-77
2021/03/04 11:27:07;;;;;;;7.55;2.50;;;2.20;88.70;;;;;;5072275;28;20044;-76
2021/03/04 11:29:33;;;;;;;3.20;2.03;;;2.10;88.70;;;;;;5072173;28;20071;-76
2021/03/04 11:31:59;;;;;;;5.80;3.05;;;2.00;88.70;;;;;;5053949;28;20028;-76
2021/03/04 11:34:24;;;;;;;5.10;2.25;;;1.90;88.90;;;;;;5054029;28;20035;-75
2021/03/04 11:36:50;;;;;;;7.85;2.20;;;1.90;88.50;;;;;;5071723;28;20020;-77
2021/03/04 11:39:16;;;;;;;2.75;1.98;;;1.90;88.30;;;;;;5071973;28;20043;-77
2021/03/04 11:41:42;;;;;;;3.20;2.20;;;1.80;88.40;;;;;;5053782;28;20028;-77
2021/03/04 11:44:08;;;;;;;2.83;2.25;;;1.70;88.20;;;;;;5053629;28;20047;-76
2021/03/04 11:46:34;;;;;;;2.63;1.85;;;1.70;87.90;;;;;;5086031;28;20442;-76
2021/03/04 11:49:00;;;;;;;5.05;2.08;;;1.60;87.70;;;;;;5075823;28;20027;-76
2021/03/04 11:51:26;;;;;;;5.85;2.45;;;1.70;87.50;;;;;;5078750;28;20024;-76
2021/03/04 11:53:51;;;;;;;4.38;1.98;;;1.70;87.70;;;;;;5074692;28;20020;-75
2021/03/04 11:56:17;;;;;;;5.85;2.83;;;1.80;87.20;;;;;;5070364;28;20157;-75
2021/03/04 11:58:43;;;;;;;3.78;2.30;;;1.80;87.00;;;;;;5074916;28;20043;-75
2021/03/04 12:01:09;;;;;;;6.18;2.20;;;1.80;86.80;;;;;;5075068;28;20017;-76
2021/03/04 12:03:35;;;;;;;3.25;1.85;;;1.90;86.60;;;;;;5075073;28;20032;-76
2021/03/04 12:06:01;;;;;;;4.57;2.42;;;2.00;86.00;;;;;;5057103;28;20082;-75
2021/03/04 12:08:26;;;;;;;4.65;2.28;;;2.00;85.70;;;;;;5057393;28;20417;-77
2021/03/04 12:10:53;;;;;;;3.65;2.10;;;2.10;84.10;;;;;;5075506;28;20421;-76
2021/03/04 12:13:19;;;;;;;6.30;2.35;;;2.00;83.10;;;;;;5074851;28;20381;-76
2021/03/04 12:15:45;;;;;;;3.55;2.38;;;2.10;82.40;;;;;;5075062;28;20154;-75
2021/03/04 12:18:13;;;;;;;13.82;2.65;;;2.20;79.90;;;;;;5075100;28;20021;-75
2021/03/04 12:20:39;;;;;;;2.97;2.10;;;2.20;79.50;;;;;;5074871;28;20401;-76
2021/03/04 12:23:07;;;;;;;5.65;2.10;;;2.20;79.40;;;;;;5074919;28;20024;-75
2021/03/04 12:25:34;;;;;;;3.42;1.48;;;2.30;78.80;;;;;;5074794;28;20024;-77
2021/03/04 12:28:00;;;;;;;3.40;1.98;;;2.30;76.00;;;;;;5074916;28;20034;-76
2021/03/04 12:30:26;;;;;;;2.60;1.70;;;2.30;76.50;;;;;;5057364;28;20024;-77
2021/03/04 12:32:52;;;;;;;2.50;1.88;;;2.40;76.00;;;;;;5074846;28;20028;-77
2021/03/04 12:35:18;;;;;;;2.80;1.73;;;2.50;74.80;;;;;;5074557;28;20022;-77
2021/03/04 12:37:44;;;;;;;2.30;1.75;;;2.50;74.40;;;;;;5074603;28;20021;-77
2021/03/04 12:40:11;;;;;;;3.83;1.50;;;2.60;72.90;;;;;;5074155;28;20089;-76
2021/03/04 12:42:36;;;;;;;2.50;1.40;;;2.50;72.70;;;;;;5074341;28;20077;-77
2021/03/04 12:45:04;;;;;;;4.70;2.05;;;2.40;72.90;;;;;;5074213;28;20062;-76
2021/03/04 12:47:29;;;;;;;2.95;2.05;;;2.40;73.90;;;;;;5074750;28;20025;-76
2021/03/04 12:50:01;;;;;;;2.33;1.63;;;2.40;73.70;;;;;;5056834;28;20111;-76
2021/03/04 12:52:27;;;;;;;4.07;1.55;;;2.30;73.60;;;;;;5056334;28;20040;-77
2021/03/04 12:54:53;;;;;;;2.92;2.00;;;2.30;74.50;;;;;;5074275;28;20024;-77
2021/03/04 12:57:19;;;;;;;5.03;2.38;;;2.30;74.90;;;;;;5073891;28;20056;-76
2021/03/04 12:59:45;;;;;;;4.10;1.85;;;2.30;75.50;;;;;;5074114;28;20039;-75
2021/03/04 13:02:11;;;;;;;1.85;1.65;;;2.30;75.10;;;;;;5074387;28;20549;-78
2021/03/04 13:04:36;;;;;;;3.97;2.10;;;2.20;74.50;;;;;;5055913;28;20070;-76